sensor_id;sensor_type;location;lat;lon;timestamp;P1;durP1;ratioP1;P2;durP2;ratioP2
15536;SDS011;7870;52.448;13.270;2023-10-31T00:01:25;8.02;;;3.47;;
15536;SDS011;7870;52.448;13.270;2023-10-31T00:03:52;5.38;;;3.08;;
15536;SDS011;7870;52.448;13.270;2023-10-31T00:06:18;6.13;;;3.10;;
15536;SDS011;7870;52.448;13.270;2023-10-31T00:08:45;5.72;;;3.30;;
15536;SDS011;7870;52.448;13.270;2023-10-31T00:11:11;6.47;;;2.90;;
15536;SDS011;7870;52.448;13.270;2023-10-31T00:13:38;10.07;;;3.67;;
15536;SDS011;7870;52.448;13.270;2023-10-31T00:16:05;6.47;;;3.67;;
15536;SDS011;7870;52.448;13.270;2023-10-31T00:18:32;7.43;;;3.25;;
15536;SDS011;7870;52.448;13.270;2023-10-31T00:20:58;9.98;;;3.90;;
15536;SDS011;7870;52.448;13.270;2023-10-31T00:23:25;6.18;;;4.03;;
15536;SDS011;7870;52.448;13.270;2023-10-31T00:25:51;5.68;;;3.55;;
15536;SDS011;7870;52.448;13.270;2023-10-31T00:28:18;11.35;;;4.05;;
15536;SDS011;7870;52.448;13.270;2023-10-31T00:30:44;19.95;;;5.32;;
15536;SDS011;7870;52.448;13.270;2023-10-31T00:33:11;8.05;;;3.63;;
15536;SDS011;7870;52.448;13.270;2023-10-31T00:35:37;8.55;;;3.40;;
15536;SDS011;7870;52.448;13.270;2023-10-31T00:38:04;6.90;;;4.32;;
15536;SDS011;7870;52.448;13.270;2023-10-31T00:40:31;4.85;;;2.70;;
15536;SDS011;7870;52.448;13.270;2023-10-31T00:42:57;5.47;;;3.25;;
15536;SDS011;7870;52.448;13.270;2023-10-31T00:45:26;15.55;;;4.07;;
15536;SDS011;7870;52.448;13.270;2023-10-31T00:47:52;7.65;;;3.55;;
15536;SDS011;7870;52.448;13.270;2023-10-31T00:50:19;6.00;;;3.03;;
15536;SDS011;7870;52.448;13.270;2023-10-31T00:52:46;6.40;;;3.05;;
15536;SDS011;7870;52.448;13.270;2023-10-31T00:55:12;5.10;;;2.85;;
15536;SDS011;7870;52.448;13.270;2023-10-31T00:57:39;13.60;;;4.32;;
15536;SDS011;7870;52.448;13.270;2023-10-31T01:00:05;7.25;;;3.25;;
15536;SDS011;7870;52.448;13.270;2023-10-31T01:02:32;9.15;;;3.63;;
15536;SDS011;7870;52.448;13.270;2023-10-31T01:04:59;7.78;;;3.80;;
15536;SDS011;7870;52.448;13.270;2023-10-31T01:07:26;7.88;;;4.03;;
15536;SDS011;7870;52.448;13.270;2023-10-31T01:09:53;9.02;;;4.00;;
15536;SDS011;7870;52.448;13.270;2023-10-31T01:12:19;7.20;;;3.72;;
15536;SDS011;7870;52.448;13.270;2023-10-31T01:14:46;7.85;;;3.65;;
15536;SDS011;7870;52.448;13.270;2023-10-31T01:17:13;9.05;;;3.90;;
15536;SDS011;7870;52.448;13.270;2023-10-31T01:19:39;8.13;;;3.67;;
15536;SDS011;7870;52.448;13.270;2023-10-31T01:22:06;12.65;;;3.88;;
15536;SDS011;7870;52.448;13.270;2023-10-31T01:24:34;4.68;;;3.45;;
15536;SDS011;7870;52.448;13.270;2023-10-31T01:27:01;7.07;;;4.10;;
15536;SDS011;7870;52.448;13.270;2023-10-31T01:29:28;6.65;;;4.10;;
15536;SDS011;7870;52.448;13.270;2023-10-31T01:31:54;15.80;;;4.60;;
15536;SDS011;7870;52.448;13.270;2023-10-31T01:34:28;8.25;;;3.75;;
15536;SDS011;7870;52.448;13.270;2023-10-31T01:36:54;8.00;;;4.28;;
15536;SDS011;7870;52.448;13.270;2023-10-31T01:39:21;7.55;;;4.35;;
15536;SDS011;7870;52.448;13.270;2023-10-31T01:41:47;7.97;;;3.75;;
15536;SDS011;7870;52.448;13.270;2023-10-31T01:44:15;6.10;;;3.92;;
15536;SDS011;7870;52.448;13.270;2023-10-31T01:46:41;7.53;;;4.03;;
15536;SDS011;7870;52.448;13.270;2023-10-31T01:49:08;7.65;;;3.80;;
15536;SDS011;7870;52.448;13.270;2023-10-31T01:51:34;7.57;;;4.35;;
15536;SDS011;7870;52.448;13.270;2023-10-31T01:54:01;10.63;;;4.03;;
15536;SDS011;7870;52.448;13.270;2023-10-31T01:56:27;7.57;;;4.03;;
15536;SDS011;7870;52.448;13.270;2023-10-31T01:58:54;7.00;;;4.03;;
15536;SDS011;7870;52.448;13.270;2023-10-31T02:01:21;9.18;;;4.20;;
15536;SDS011;7870;52.448;13.270;2023-10-31T02:03:48;6.97;;;4.20;;
15536;SDS011;7870;52.448;13.270;2023-10-31T02:06:15;6.25;;;3.88;;
15536;SDS011;7870;52.448;13.270;2023-10-31T02:08:42;8.70;;;4.22;;
15536;SDS011;7870;52.448;13.270;2023-10-31T02:11:08;6.32;;;3.55;;
15536;SDS011;7870;52.448;13.270;2023-10-31T02:13:36;4.90;;;3.28;;
15536;SDS011;7870;52.448;13.270;2023-10-31T02:16:04;5.28;;;3.65;;
15536;SDS011;7870;52.448;13.270;2023-10-31T02:18:33;6.82;;;3.92;;
15536;SDS011;7870;52.448;13.270;2023-10-31T02:20:59;7.28;;;3.72;;
15536;SDS011;7870;52.448;13.270;2023-10-31T02:23:26;6.70;;;3.88;;
15536;SDS011;7870;52.448;13.270;2023-10-31T02:25:54;8.98;;;3.67;;
15536;SDS011;7870;52.448;13.270;2023-10-31T02:28:21;6.38;;;3.30;;
15536;SDS011;7870;52.448;13.270;2023-10-31T02:30:48;13.70;;;4.55;;
15536;SDS011;7870;52.448;13.270;2023-10-31T02:33:15;10.60;;;5.07;;
15536;SDS011;7870;52.448;13.270;2023-10-31T02:35:41;6.57;;;3.70;;
15536;SDS011;7870;52.448;13.270;2023-10-31T02:38:08;7.95;;;4.43;;
15536;SDS011;7870;52.448;13.270;2023-10-31T02:40:34;7.78;;;4.43;;
15536;SDS011;7870;52.448;13.270;2023-10-31T02:43:01;8.50;;;4.00;;
15536;SDS011;7870;52.448;13.270;2023-10-31T02:45:28;8.02;;;4.00;;
15536;SDS011;7870;52.448;13.270;2023-10-31T02:47:55;8.45;;;4.00;;
15536;SDS011;7870;52.448;13.270;2023-10-31T02:50:22;6.88;;;3.63;;
15536;SDS011;7870;52.448;13.270;2023-10-31T02:52:49;9.18;;;4.55;;
15536;SDS011;7870;52.448;13.270;2023-10-31T02:55:15;8.10;;;4.30;;
15536;SDS011;7870;52.448;13.270;2023-10-31T02:57:42;7.13;;;4.10;;
15536;SDS011;7870;52.448;13.270;2023-10-31T03:00:09;6.72;;;4.13;;
15536;SDS011;7870;52.448;13.270;2023-10-31T03:02:36;10.35;;;4.93;;
15536;SDS011;7870;52.448;13.270;2023-10-31T03:05:02;10.80;;;5.05;;
15536;SDS011;7870;52.448;13.270;2023-10-31T03:07:29;9.55;;;4.15;;
15536;SDS011;7870;52.448;13.270;2023-10-31T03:09:56;8.60;;;4.70;;
15536;SDS011;7870;52.448;13.270;2023-10-31T03:12:22;6.28;;;3.92;;
15536;SDS011;7870;52.448;13.270;2023-10-31T03:14:50;7.68;;;4.20;;
15536;SDS011;7870;52.448;13.270;2023-10-31T03:17:17;6.60;;;4.32;;
15536;SDS011;7870;52.448;13.270;2023-10-31T03:19:43;7.22;;;4.45;;
15536;SDS011;7870;52.448;13.270;2023-10-31T03:22:10;7.32;;;4.45;;
15536;SDS011;7870;52.448;13.270;2023-10-31T03:24:37;14.80;;;4.53;;
15536;SDS011;7870;52.448;13.270;2023-10-31T03:27:03;9.82;;;4.55;;
15536;SDS011;7870;52.448;13.270;2023-10-31T03:29:30;8.82;;;4.53;;
15536;SDS011;7870;52.448;13.270;2023-10-31T03:31:56;23.17;;;5.50;;
15536;SDS011;7870;52.448;13.270;2023-10-31T03:34:23;9.18;;;4.97;;
15536;SDS011;7870;52.448;13.270;2023-10-31T03:36:49;17.27;;;5.03;;
15536;SDS011;7870;52.448;13.270;2023-10-31T03:39:16;9.45;;;4.55;;
15536;SDS011;7870;52.448;13.270;2023-10-31T03:41:43;18.20;;;5.60;;
15536;SDS011;7870;52.448;13.270;2023-10-31T03:44:10;13.55;;;4.53;;
15536;SDS011;7870;52.448;13.270;2023-10-31T03:46:36;12.63;;;4.88;;
15536;SDS011;7870;52.448;13.270;2023-10-31T03:49:03;8.68;;;5.32;;
15536;SDS011;7870;52.448;13.270;2023-10-31T03:51:30;16.98;;;5.10;;
15536;SDS011;7870;52.448;13.270;2023-10-31T03:53:56;9.98;;;4.88;;
15536;SDS011;7870;52.448;13.270;2023-10-31T03:56:23;6.82;;;5.05;;
15536;SDS011;7870;52.448;13.270;2023-10-31T03:58:49;7.93;;;4.47;;
15536;SDS011;7870;52.448;13.270;2023-10-31T04:01:16;7.93;;;5.07;;
15536;SDS011;7870;52.448;13.270;2023-10-31T04:03:43;12.02;;;5.85;;
15536;SDS011;7870;52.448;13.270;2023-10-31T04:06:11;10.40;;;6.10;;
15536;SDS011;7870;52.448;13.270;2023-10-31T04:08:37;12.95;;;6.00;;
15536;SDS011;7870;52.448;13.270;2023-10-31T04:11:04;9.27;;;5.45;;
15536;SDS011;7870;52.448;13.270;2023-10-31T04:13:30;11.77;;;6.45;;
15536;SDS011;7870;52.448;13.270;2023-10-31T04:15:57;13.88;;;6.30;;
15536;SDS011;7870;52.448;13.270;2023-10-31T04:18:24;6.85;;;5.50;;
15536;SDS011;7870;52.448;13.270;2023-10-31T04:20:50;17.90;;;7.45;;
15536;SDS011;7870;52.448;13.270;2023-10-31T04:23:16;10.15;;;6.05;;
15536;SDS011;7870;52.448;13.270;2023-10-31T04:25:43;10.07;;;5.28;;
15536;SDS011;7870;52.448;13.270;2023-10-31T04:28:10;13.85;;;7.00;;
15536;SDS011;7870;52.448;13.270;2023-10-31T04:30:36;11.45;;;6.28;;
15536;SDS011;7870;52.448;13.270;2023-10-31T04:33:03;9.48;;;6.10;;
15536;SDS011;7870;52.448;13.270;2023-10-31T04:35:29;13.07;;;7.20;;
15536;SDS011;7870;52.448;13.270;2023-10-31T04:37:56;11.80;;;6.97;;
15536;SDS011;7870;52.448;13.270;2023-10-31T04:40:23;9.52;;;6.82;;
15536;SDS011;7870;52.448;13.270;2023-10-31T04:42:49;25.15;;;6.93;;
15536;SDS011;7870;52.448;13.270;2023-10-31T04:45:16;6.20;;;5.53;;
15536;SDS011;7870;52.448;13.270;2023-10-31T04:47:42;8.18;;;6.10;;
15536;SDS011;7870;52.448;13.270;2023-10-31T04:50:09;21.13;;;7.00;;
15536;SDS011;7870;52.448;13.270;2023-10-31T04:52:36;8.65;;;5.78;;
15536;SDS011;7870;52.448;13.270;2023-10-31T04:55:02;9.48;;;5.50;;
15536;SDS011;7870;52.448;13.270;2023-10-31T04:57:29;8.70;;;5.68;;
15536;SDS011;7870;52.448;13.270;2023-10-31T04:59:56;8.57;;;5.80;;
15536;SDS011;7870;52.448;13.270;2023-10-31T05:02:23;8.95;;;5.88;;
15536;SDS011;7870;52.448;13.270;2023-10-31T05:04:50;13.38;;;6.75;;
15536;SDS011;7870;52.448;13.270;2023-10-31T05:07:17;12.05;;;6.38;;
15536;SDS011;7870;52.448;13.270;2023-10-31T05:09:44;6.85;;;5.20;;
15536;SDS011;7870;52.448;13.270;2023-10-31T05:12:12;10.13;;;6.30;;
15536;SDS011;7870;52.448;13.270;2023-10-31T05:14:40;9.27;;;6.20;;
15536;SDS011;7870;52.448;13.270;2023-10-31T05:17:06;9.77;;;7.10;;
15536;SDS011;7870;52.448;13.270;2023-10-31T05:19:33;11.38;;;5.43;;
15536;SDS011;7870;52.448;13.270;2023-10-31T05:21:59;6.88;;;5.68;;
15536;SDS011;7870;52.448;13.270;2023-10-31T05:24:26;14.60;;;6.97;;
15536;SDS011;7870;52.448;13.270;2023-10-31T05:26:53;11.45;;;6.63;;
15536;SDS011;7870;52.448;13.270;2023-10-31T05:29:19;17.80;;;6.90;;
15536;SDS011;7870;52.448;13.270;2023-10-31T05:31:46;8.45;;;6.13;;
15536;SDS011;7870;52.448;13.270;2023-10-31T05:34:13;13.80;;;5.65;;
15536;SDS011;7870;52.448;13.270;2023-10-31T05:36:40;16.55;;;6.20;;
15536;SDS011;7870;52.448;13.270;2023-10-31T05:39:07;7.15;;;5.65;;
15536;SDS011;7870;52.448;13.270;2023-10-31T05:41:34;9.02;;;5.78;;
15536;SDS011;7870;52.448;13.270;2023-10-31T05:44:01;15.05;;;6.95;;
15536;SDS011;7870;52.448;13.270;2023-10-31T05:46:27;14.25;;;6.68;;
15536;SDS011;7870;52.448;13.270;2023-10-31T05:48:54;5.80;;;5.05;;
15536;SDS011;7870;52.448;13.270;2023-10-31T05:51:20;7.90;;;5.85;;
15536;SDS011;7870;52.448;13.270;2023-10-31T05:53:47;10.10;;;6.93;;
15536;SDS011;7870;52.448;13.270;2023-10-31T05:56:14;8.90;;;6.35;;
15536;SDS011;7870;52.448;13.270;2023-10-31T05:58:42;8.00;;;5.80;;
15536;SDS011;7870;52.448;13.270;2023-10-31T06:01:09;10.93;;;6.93;;
15536;SDS011;7870;52.448;13.270;2023-10-31T06:03:36;11.90;;;6.43;;
15536;SDS011;7870;52.448;13.270;2023-10-31T06:06:03;6.32;;;5.25;;
15536;SDS011;7870;52.448;13.270;2023-10-31T06:08:29;6.38;;;5.22;;
15536;SDS011;7870;52.448;13.270;2023-10-31T06:10:56;7.80;;;5.65;;
15536;SDS011;7870;52.448;13.270;2023-10-31T06:13:23;7.40;;;5.40;;
15536;SDS011;7870;52.448;13.270;2023-10-31T06:15:54;13.98;;;5.50;;
15536;SDS011;7870;52.448;13.270;2023-10-31T06:18:25;6.97;;;4.97;;
15536;SDS011;7870;52.448;13.270;2023-10-31T06:20:52;13.18;;;5.70;;
15536;SDS011;7870;52.448;13.270;2023-10-31T06:23:19;11.10;;;5.65;;
15536;SDS011;7870;52.448;13.270;2023-10-31T06:25:45;6.82;;;4.50;;
15536;SDS011;7870;52.448;13.270;2023-10-31T06:28:12;6.15;;;4.00;;
15536;SDS011;7870;52.448;13.270;2023-10-31T06:30:39;7.40;;;3.75;;
15536;SDS011;7870;52.448;13.270;2023-10-31T06:33:05;5.60;;;3.70;;
15536;SDS011;7870;52.448;13.270;2023-10-31T06:35:33;7.38;;;4.63;;
15536;SDS011;7870;52.448;13.270;2023-10-31T06:38:00;4.55;;;3.50;;
15536;SDS011;7870;52.448;13.270;2023-10-31T06:40:27;7.28;;;4.40;;
15536;SDS011;7870;52.448;13.270;2023-10-31T06:42:53;8.93;;;4.88;;
15536;SDS011;7870;52.448;13.270;2023-10-31T06:45:20;4.03;;;2.90;;
15536;SDS011;7870;52.448;13.270;2023-10-31T06:47:47;5.18;;;3.00;;
15536;SDS011;7870;52.448;13.270;2023-10-31T06:50:13;4.63;;;3.00;;
15536;SDS011;7870;52.448;13.270;2023-10-31T06:52:43;5.38;;;3.20;;
15536;SDS011;7870;52.448;13.270;2023-10-31T06:55:09;5.32;;;2.60;;
15536;SDS011;7870;52.448;13.270;2023-10-31T06:57:36;6.45;;;2.97;;
15536;SDS011;7870;52.448;13.270;2023-10-31T07:00:03;6.82;;;3.28;;
15536;SDS011;7870;52.448;13.270;2023-10-31T07:02:31;4.85;;;2.72;;
15536;SDS011;7870;52.448;13.270;2023-10-31T07:04:57;6.97;;;3.67;;
15536;SDS011;7870;52.448;13.270;2023-10-31T07:07:24;4.35;;;2.33;;
15536;SDS011;7870;52.448;13.270;2023-10-31T07:09:50;7.05;;;2.38;;
15536;SDS011;7870;52.448;13.270;2023-10-31T07:12:17;7.57;;;2.17;;
15536;SDS011;7870;52.448;13.270;2023-10-31T07:14:43;4.68;;;1.90;;
15536;SDS011;7870;52.448;13.270;2023-10-31T07:17:10;3.03;;;1.95;;
15536;SDS011;7870;52.448;13.270;2023-10-31T07:19:37;11.40;;;1.90;;
15536;SDS011;7870;52.448;13.270;2023-10-31T07:22:03;3.75;;;1.63;;
15536;SDS011;7870;52.448;13.270;2023-10-31T07:24:30;3.88;;;1.73;;
15536;SDS011;7870;52.448;13.270;2023-10-31T07:26:56;2.63;;;1.48;;
15536;SDS011;7870;52.448;13.270;2023-10-31T07:29:23;4.40;;;1.55;;
15536;SDS011;7870;52.448;13.270;2023-10-31T07:31:49;4.13;;;2.03;;
15536;SDS011;7870;52.448;13.270;2023-10-31T07:34:16;1.88;;;1.20;;
15536;SDS011;7870;52.448;13.270;2023-10-31T07:36:43;3.25;;;1.65;;
15536;SDS011;7870;52.448;13.270;2023-10-31T07:39:10;2.03;;;1.20;;
15536;SDS011;7870;52.448;13.270;2023-10-31T07:41:36;5.93;;;1.90;;
15536;SDS011;7870;52.448;13.270;2023-10-31T07:44:03;2.63;;;1.00;;
15536;SDS011;7870;52.448;13.270;2023-10-31T07:46:30;2.10;;;1.00;;
15536;SDS011;7870;52.448;13.270;2023-10-31T07:48:56;1.65;;;0.85;;
15536;SDS011;7870;52.448;13.270;2023-10-31T07:51:23;3.20;;;0.98;;
15536;SDS011;7870;52.448;13.270;2023-10-31T07:53:50;1.58;;;0.80;;
15536;SDS011;7870;52.448;13.270;2023-10-31T07:56:17;2.30;;;0.63;;
15536;SDS011;7870;52.448;13.270;2023-10-31T07:58:45;2.22;;;0.60;;
15536;SDS011;7870;52.448;13.270;2023-10-31T08:01:11;2.03;;;0.80;;
15536;SDS011;7870;52.448;13.270;2023-10-31T08:03:38;1.23;;;0.60;;
15536;SDS011;7870;52.448;13.270;2023-10-31T08:06:05;1.45;;;0.68;;
15536;SDS011;7870;52.448;13.270;2023-10-31T08:08:33;1.42;;;0.60;;
15536;SDS011;7870;52.448;13.270;2023-10-31T08:11:00;9.25;;;1.17;;
15536;SDS011;7870;52.448;13.270;2023-10-31T08:13:27;1.15;;;0.65;;
15536;SDS011;7870;52.448;13.270;2023-10-31T08:15:53;3.55;;;0.63;;
15536;SDS011;7870;52.448;13.270;2023-10-31T08:18:21;1.85;;;0.47;;
15536;SDS011;7870;52.448;13.270;2023-10-31T08:20:49;2.15;;;0.50;;
15536;SDS011;7870;52.448;13.270;2023-10-31T08:23:17;4.53;;;0.63;;
15536;SDS011;7870;52.448;13.270;2023-10-31T08:25:44;0.77;;;0.50;;
15536;SDS011;7870;52.448;13.270;2023-10-31T08:28:11;1.25;;;0.40;;
15536;SDS011;7870;52.448;13.270;2023-10-31T08:30:37;3.78;;;0.60;;
15536;SDS011;7870;52.448;13.270;2023-10-31T08:33:07;1.00;;;0.50;;
15536;SDS011;7870;52.448;13.270;2023-10-31T08:35:37;1.42;;;0.43;;
15536;SDS011;7870;52.448;13.270;2023-10-31T08:38:04;0.60;;;0.43;;
15536;SDS011;7870;52.448;13.270;2023-10-31T08:40:30;9.95;;;0.85;;
15536;SDS011;7870;52.448;13.270;2023-10-31T08:42:57;0.80;;;0.50;;
15536;SDS011;7870;52.448;13.270;2023-10-31T08:45:23;1.02;;;0.55;;
15536;SDS011;7870;52.448;13.270;2023-10-31T08:47:51;2.30;;;0.70;;
15536;SDS011;7870;52.448;13.270;2023-10-31T08:50:17;1.50;;;0.55;;
15536;SDS011;7870;52.448;13.270;2023-10-31T08:52:44;1.73;;;0.60;;
15536;SDS011;7870;52.448;13.270;2023-10-31T08:55:10;1.58;;;0.68;;
15536;SDS011;7870;52.448;13.270;2023-10-31T08:57:37;4.45;;;0.52;;
15536;SDS011;7870;52.448;13.270;2023-10-31T09:00:04;3.83;;;0.65;;
15536;SDS011;7870;52.448;13.270;2023-10-31T09:02:31;0.95;;;0.30;;
15536;SDS011;7870;52.448;13.270;2023-10-31T09:04:58;0.70;;;0.40;;
15536;SDS011;7870;52.448;13.270;2023-10-31T09:07:25;3.38;;;0.65;;
15536;SDS011;7870;52.448;13.270;2023-10-31T09:09:51;1.83;;;0.45;;
15536;SDS011;7870;52.448;13.270;2023-10-31T09:12:18;1.13;;;0.70;;
15536;SDS011;7870;52.448;13.270;2023-10-31T09:14:44;1.95;;;0.65;;
15536;SDS011;7870;52.448;13.270;2023-10-31T09:17:11;4.32;;;0.70;;
15536;SDS011;7870;52.448;13.270;2023-10-31T09:19:38;1.38;;;0.40;;
15536;SDS011;7870;52.448;13.270;2023-10-31T09:22:05;10.25;;;1.40;;
15536;SDS011;7870;52.448;13.270;2023-10-31T09:24:31;3.70;;;0.57;;
15536;SDS011;7870;52.448;13.270;2023-10-31T09:26:58;2.45;;;0.43;;
15536;SDS011;7870;52.448;13.270;2023-10-31T09:29:24;1.90;;;0.65;;
15536;SDS011;7870;52.448;13.270;2023-10-31T09:31:55;1.23;;;0.80;;
15536;SDS011;7870;52.448;13.270;2023-10-31T09:34:22;4.18;;;0.90;;
15536;SDS011;7870;52.448;13.270;2023-10-31T09:36:48;2.65;;;0.70;;
15536;SDS011;7870;52.448;13.270;2023-10-31T09:39:15;2.95;;;1.20;;
15536;SDS011;7870;52.448;13.270;2023-10-31T09:41:41;4.25;;;0.63;;
15536;SDS011;7870;52.448;13.270;2023-10-31T09:44:08;1.85;;;0.88;;
15536;SDS011;7870;52.448;13.270;2023-10-31T09:46:35;2.95;;;0.80;;
15536;SDS011;7870;52.448;13.270;2023-10-31T09:49:01;1.35;;;0.63;;
15536;SDS011;7870;52.448;13.270;2023-10-31T09:51:28;2.58;;;0.80;;
15536;SDS011;7870;52.448;13.270;2023-10-31T09:53:55;4.93;;;0.73;;
15536;SDS011;7870;52.448;13.270;2023-10-31T09:56:23;1.83;;;0.60;;
15536;SDS011;7870;52.448;13.270;2023-10-31T09:58:50;3.03;;;0.70;;
15536;SDS011;7870;52.448;13.270;2023-10-31T10:01:17;3.47;;;0.90;;
15536;SDS011;7870;52.448;13.270;2023-10-31T10:03:44;6.95;;;1.00;;
15536;SDS011;7870;52.448;13.270;2023-10-31T10:06:11;2.70;;;0.93;;
15536;SDS011;7870;52.448;13.270;2023-10-31T10:08:37;1.05;;;0.50;;
15536;SDS011;7870;52.448;13.270;2023-10-31T10:11:05;1.08;;;0.60;;
15536;SDS011;7870;52.448;13.270;2023-10-31T10:13:31;2.33;;;0.85;;
15536;SDS011;7870;52.448;13.270;2023-10-31T10:15:59;4.95;;;0.80;;
15536;SDS011;7870;52.448;13.270;2023-10-31T10:23:24;2.13;;;0.73;;
15536;SDS011;7870;52.448;13.270;2023-10-31T10:25:51;1.73;;;0.63;;
15536;SDS011;7870;52.448;13.270;2023-10-31T10:28:19;1.83;;;0.88;;
15536;SDS011;7870;52.448;13.270;2023-10-31T10:30:46;2.25;;;0.90;;
15536;SDS011;7870;52.448;13.270;2023-10-31T10:33:14;4.35;;;1.08;;
15536;SDS011;7870;52.448;13.270;2023-10-31T10:35:41;3.38;;;1.55;;
15536;SDS011;7870;52.448;13.270;2023-10-31T10:38:18;3.45;;;1.20;;
15536;SDS011;7870;52.448;13.270;2023-10-31T10:40:46;3.10;;;1.05;;
15536;SDS011;7870;52.448;13.270;2023-10-31T10:43:20;1.75;;;1.08;;
15536;SDS011;7870;52.448;13.270;2023-10-31T10:45:56;2.72;;;1.00;;
15536;SDS011;7870;52.448;13.270;2023-10-31T10:48:24;2.53;;;1.27;;
15536;SDS011;7870;52.448;13.270;2023-10-31T10:51:05;2.05;;;1.15;;
15536;SDS011;7870;52.448;13.270;2023-10-31T10:53:51;1.90;;;1.02;;
15536;SDS011;7870;52.448;13.270;2023-10-31T10:57:12;4.45;;;1.20;;
15536;SDS011;7870;52.448;13.270;2023-10-31T10:59:25;3.50;;;1.15;;
15536;SDS011;7870;52.448;13.270;2023-10-31T11:02:05;2.05;;;1.30;;
15536;SDS011;7870;52.448;13.270;2023-10-31T11:04:33;10.23;;;1.75;;
15536;SDS011;7870;52.448;13.270;2023-10-31T11:07:00;1.73;;;1.00;;
15536;SDS011;7870;52.448;13.270;2023-10-31T11:09:27;3.67;;;1.60;;
15536;SDS011;7870;52.448;13.270;2023-10-31T11:11:55;3.95;;;1.10;;
15536;SDS011;7870;52.448;13.270;2023-10-31T11:14:23;2.45;;;1.77;;
15536;SDS011;7870;52.448;13.270;2023-10-31T11:16:54;3.45;;;1.45;;
15536;SDS011;7870;52.448;13.270;2023-10-31T11:19:22;4.40;;;1.23;;
15536;SDS011;7870;52.448;13.270;2023-10-31T11:21:57;4.22;;;1.30;;
15536;SDS011;7870;52.448;13.270;2023-10-31T11:24:28;2.80;;;1.25;;
15536;SDS011;7870;52.448;13.270;2023-10-31T11:26:58;3.22;;;1.10;;
15536;SDS011;7870;52.448;13.270;2023-10-31T11:29:26;1.73;;;0.98;;
15536;SDS011;7870;52.448;13.270;2023-10-31T11:31:56;3.25;;;1.13;;
15536;SDS011;7870;52.448;13.270;2023-10-31T11:34:23;2.63;;;1.10;;
15536;SDS011;7870;52.448;13.270;2023-10-31T11:36:53;1.38;;;0.95;;
15536;SDS011;7870;52.448;13.270;2023-10-31T11:39:20;2.05;;;1.05;;
15536;SDS011;7870;52.448;13.270;2023-10-31T11:41:54;3.63;;;1.30;;
15536;SDS011;7870;52.448;13.270;2023-10-31T11:44:27;3.15;;;1.30;;
15536;SDS011;7870;52.448;13.270;2023-10-31T11:46:53;1.40;;;0.73;;
15536;SDS011;7870;52.448;13.270;2023-10-31T11:50:03;1.75;;;1.08;;
15536;SDS011;7870;52.448;13.270;2023-10-31T11:52:15;2.58;;;0.95;;
15536;SDS011;7870;52.448;13.270;2023-10-31T11:54:43;1.48;;;0.80;;
15536;SDS011;7870;52.448;13.270;2023-10-31T11:57:10;2.50;;;0.85;;
15536;SDS011;7870;52.448;13.270;2023-10-31T11:59:37;4.65;;;0.80;;
15536;SDS011;7870;52.448;13.270;2023-10-31T12:02:16;2.25;;;0.80;;
15536;SDS011;7870;52.448;13.270;2023-10-31T12:04:43;2.47;;;0.98;;
15536;SDS011;7870;52.448;13.270;2023-10-31T12:07:09;2.35;;;0.55;;
15536;SDS011;7870;52.448;13.270;2023-10-31T12:09:45;3.67;;;0.80;;
15536;SDS011;7870;52.448;13.270;2023-10-31T12:12:13;1.17;;;0.50;;
15536;SDS011;7870;52.448;13.270;2023-10-31T12:14:40;1.25;;;0.50;;
15536;SDS011;7870;52.448;13.270;2023-10-31T12:17:06;4.95;;;0.65;;
15536;SDS011;7870;52.448;13.270;2023-10-31T12:19:33;2.25;;;0.40;;
15536;SDS011;7870;52.448;13.270;2023-10-31T12:22:00;2.10;;;0.60;;
15536;SDS011;7870;52.448;13.270;2023-10-31T12:24:28;0.52;;;0.40;;
15536;SDS011;7870;52.448;13.270;2023-10-31T12:26:54;1.65;;;0.57;;
15536;SDS011;7870;52.448;13.270;2023-10-31T12:29:21;6.72;;;0.68;;
15536;SDS011;7870;52.448;13.270;2023-10-31T12:31:51;1.35;;;0.60;;
15536;SDS011;7870;52.448;13.270;2023-10-31T12:34:20;1.85;;;0.52;;
15536;SDS011;7870;52.448;13.270;2023-10-31T12:36:48;2.08;;;0.63;;
15536;SDS011;7870;52.448;13.270;2023-10-31T12:39:16;0.68;;;0.40;;
15536;SDS011;7870;52.448;13.270;2023-10-31T12:41:44;1.25;;;0.73;;
15536;SDS011;7870;52.448;13.270;2023-10-31T12:44:11;1.73;;;0.28;;
15536;SDS011;7870;52.448;13.270;2023-10-31T12:46:40;3.22;;;0.60;;
15536;SDS011;7870;52.448;13.270;2023-10-31T12:49:17;1.77;;;0.50;;
15536;SDS011;7870;52.448;13.270;2023-10-31T12:52:00;1.73;;;0.50;;
15536;SDS011;7870;52.448;13.270;2023-10-31T12:54:31;1.45;;;0.80;;
15536;SDS011;7870;52.448;13.270;2023-10-31T12:57:02;0.70;;;0.50;;
15536;SDS011;7870;52.448;13.270;2023-10-31T12:59:37;1.52;;;0.43;;
15536;SDS011;7870;52.448;13.270;2023-10-31T13:02:05;0.70;;;0.40;;
15536;SDS011;7870;52.448;13.270;2023-10-31T13:04:33;0.65;;;0.43;;
15536;SDS011;7870;52.448;13.270;2023-10-31T13:07:00;1.40;;;0.40;;
15536;SDS011;7870;52.448;13.270;2023-10-31T13:09:29;1.35;;;0.45;;
15536;SDS011;7870;52.448;13.270;2023-10-31T13:11:57;1.15;;;0.52;;
15536;SDS011;7870;52.448;13.270;2023-10-31T13:14:26;2.83;;;0.77;;
15536;SDS011;7870;52.448;13.270;2023-10-31T13:16:52;2.10;;;0.60;;
15536;SDS011;7870;52.448;13.270;2023-10-31T13:19:19;1.85;;;0.70;;
15536;SDS011;7870;52.448;13.270;2023-10-31T13:21:45;2.40;;;0.60;;
15536;SDS011;7870;52.448;13.270;2023-10-31T13:24:12;0.70;;;0.30;;
15536;SDS011;7870;52.448;13.270;2023-10-31T13:26:39;3.05;;;0.52;;
15536;SDS011;7870;52.448;13.270;2023-10-31T13:29:06;1.48;;;0.45;;
15536;SDS011;7870;52.448;13.270;2023-10-31T13:31:32;0.88;;;0.40;;
15536;SDS011;7870;52.448;13.270;2023-10-31T13:33:59;3.50;;;0.50;;
15536;SDS011;7870;52.448;13.270;2023-10-31T13:36:26;0.68;;;0.45;;
15536;SDS011;7870;52.448;13.270;2023-10-31T13:38:52;2.05;;;0.30;;
15536;SDS011;7870;52.448;13.270;2023-10-31T13:41:19;1.45;;;0.47;;
15536;SDS011;7870;52.448;13.270;2023-10-31T13:43:46;2.92;;;0.70;;
15536;SDS011;7870;52.448;13.270;2023-10-31T13:46:14;0.30;;;0.30;;
15536;SDS011;7870;52.448;13.270;2023-10-31T13:48:41;3.28;;;0.43;;
15536;SDS011;7870;52.448;13.270;2023-10-31T13:51:08;3.70;;;0.40;;
15536;SDS011;7870;52.448;13.270;2023-10-31T13:53:34;1.77;;;0.50;;
15536;SDS011;7870;52.448;13.270;2023-10-31T13:56:01;1.33;;;0.50;;
15536;SDS011;7870;52.448;13.270;2023-10-31T13:58:28;2.90;;;0.40;;
15536;SDS011;7870;52.448;13.270;2023-10-31T14:00:54;0.73;;;0.32;;
15536;SDS011;7870;52.448;13.270;2023-10-31T14:03:21;1.13;;;0.32;;
15536;SDS011;7870;52.448;13.270;2023-10-31T14:05:49;4.25;;;0.80;;
15536;SDS011;7870;52.448;13.270;2023-10-31T14:08:15;2.25;;;0.40;;
15536;SDS011;7870;52.448;13.270;2023-10-31T14:10:43;0.98;;;0.43;;
15536;SDS011;7870;52.448;13.270;2023-10-31T14:13:12;1.45;;;0.47;;
15536;SDS011;7870;52.448;13.270;2023-10-31T14:15:38;3.38;;;0.55;;
15536;SDS011;7870;52.448;13.270;2023-10-31T14:18:05;0.57;;;0.32;;
15536;SDS011;7870;52.448;13.270;2023-10-31T14:20:32;0.35;;;0.32;;
15536;SDS011;7870;52.448;13.270;2023-10-31T14:22:58;0.95;;;0.40;;
15536;SDS011;7870;52.448;13.270;2023-10-31T14:25:25;4.25;;;0.70;;
15536;SDS011;7870;52.448;13.270;2023-10-31T14:27:51;2.10;;;0.63;;
15536;SDS011;7870;52.448;13.270;2023-10-31T14:30:18;1.83;;;0.50;;
15536;SDS011;7870;52.448;13.270;2023-10-31T14:32:45;1.23;;;0.68;;
15536;SDS011;7870;52.448;13.270;2023-10-31T14:35:11;0.68;;;0.43;;
15536;SDS011;7870;52.448;13.270;2023-10-31T14:37:38;2.97;;;0.40;;
15536;SDS011;7870;52.448;13.270;2023-10-31T14:40:04;1.23;;;0.45;;
15536;SDS011;7870;52.448;13.270;2023-10-31T14:42:32;1.13;;;0.45;;
15536;SDS011;7870;52.448;13.270;2023-10-31T14:44:59;2.20;;;0.50;;
15536;SDS011;7870;52.448;13.270;2023-10-31T14:47:26;1.50;;;0.55;;
15536;SDS011;7870;52.448;13.270;2023-10-31T14:49:53;3.05;;;0.98;;
15536;SDS011;7870;52.448;13.270;2023-10-31T14:52:19;2.03;;;0.70;;